sensor_id;sensor_type;location;lat;lon;timestamp;P1;durP1;ratioP1;P2;durP2;ratioP2
57846;SDS011;43675;50.030;21.952;2023-10-08T00:00:37;86.90;;;79.40;;
57846;SDS011;43675;50.030;21.952;2023-10-08T00:03:23;99.20;;;90.70;;
57846;SDS011;43675;50.030;21.952;2023-10-08T00:05:50;94.90;;;87.00;;
57846;SDS011;43675;50.030;21.952;2023-10-08T00:08:17;85.50;;;78.20;;
57846;SDS011;43675;50.030;21.952;2023-10-08T00:10:43;82.00;;;75.20;;
57846;SDS011;43675;50.030;21.952;2023-10-08T00:13:11;95.90;;;87.70;;
57846;SDS011;43675;50.030;21.952;2023-10-08T00:15:39;92.90;;;85.10;;
57846;SDS011;43675;50.030;21.952;2023-10-08T00:18:06;90.30;;;82.90;;
57846;SDS011;43675;50.030;21.952;2023-10-08T00:20:34;85.80;;;78.90;;
57846;SDS011;43675;50.030;21.952;2023-10-08T00:23:01;80.30;;;73.20;;
57846;SDS011;43675;50.030;21.952;2023-10-08T00:25:28;81.80;;;74.80;;
57846;SDS011;43675;50.030;21.952;2023-10-08T00:27:55;89.90;;;82.50;;
57846;SDS011;43675;50.030;21.952;2023-10-08T00:30:21;87.10;;;79.60;;
57846;SDS011;43675;50.030;21.952;2023-10-08T00:32:48;87.80;;;80.20;;
57846;SDS011;43675;50.030;21.952;2023-10-08T00:35:14;85.10;;;77.50;;
57846;SDS011;43675;50.030;21.952;2023-10-08T00:37:41;87.20;;;79.50;;
57846;SDS011;43675;50.030;21.952;2023-10-08T00:40:08;95.60;;;87.10;;
57846;SDS011;43675;50.030;21.952;2023-10-08T00:42:35;87.60;;;80.00;;
57846;SDS011;43675;50.030;21.952;2023-10-08T00:45:02;86.40;;;78.80;;
57846;SDS011;43675;50.030;21.952;2023-10-08T00:47:28;84.60;;;77.00;;
57846;SDS011;43675;50.030;21.952;2023-10-08T00:49:55;85.30;;;78.10;;
57846;SDS011;43675;50.030;21.952;2023-10-08T00:52:22;84.50;;;77.00;;
57846;SDS011;43675;50.030;21.952;2023-10-08T00:54:48;88.70;;;80.90;;
57846;SDS011;43675;50.030;21.952;2023-10-08T00:57:16;83.70;;;76.50;;
57846;SDS011;43675;50.030;21.952;2023-10-08T00:59:45;84.10;;;76.70;;
57846;SDS011;43675;50.030;21.952;2023-10-08T01:02:12;78.20;;;71.40;;
57846;SDS011;43675;50.030;21.952;2023-10-08T01:04:39;83.70;;;76.60;;
57846;SDS011;43675;50.030;21.952;2023-10-08T01:07:06;81.70;;;74.80;;
57846;SDS011;43675;50.030;21.952;2023-10-08T01:09:32;78.20;;;71.40;;
57846;SDS011;43675;50.030;21.952;2023-10-08T01:12:18;82.30;;;75.40;;
57846;SDS011;43675;50.030;21.952;2023-10-08T01:14:47;83.80;;;76.80;;
57846;SDS011;43675;50.030;21.952;2023-10-08T01:17:14;84.40;;;77.20;;
57846;SDS011;43675;50.030;21.952;2023-10-08T01:19:41;81.30;;;74.00;;
57846;SDS011;43675;50.030;21.952;2023-10-08T01:22:14;81.10;;;74.20;;
57846;SDS011;43675;50.030;21.952;2023-10-08T01:24:41;94.60;;;86.30;;
57846;SDS011;43675;50.030;21.952;2023-10-08T01:27:08;81.60;;;74.60;;
57846;SDS011;43675;50.030;21.952;2023-10-08T01:29:34;82.70;;;75.50;;
57846;SDS011;43675;50.030;21.952;2023-10-08T01:32:01;80.30;;;73.40;;
57846;SDS011;43675;50.030;21.952;2023-10-08T01:34:27;77.00;;;70.30;;
57846;SDS011;43675;50.030;21.952;2023-10-08T01:36:54;85.00;;;77.60;;
57846;SDS011;43675;50.030;21.952;2023-10-08T01:39:22;78.50;;;71.70;;
57846;SDS011;43675;50.030;21.952;2023-10-08T01:41:48;86.20;;;79.10;;
57846;SDS011;43675;50.030;21.952;2023-10-08T01:44:15;76.10;;;69.60;;
57846;SDS011;43675;50.030;21.952;2023-10-08T01:46:42;71.20;;;65.00;;
57846;SDS011;43675;50.030;21.952;2023-10-08T01:49:09;69.10;;;63.20;;
57846;SDS011;43675;50.030;21.952;2023-10-08T01:51:36;72.40;;;66.40;;
57846;SDS011;43675;50.030;21.952;2023-10-08T01:54:03;76.50;;;69.90;;
57846;SDS011;43675;50.030;21.952;2023-10-08T01:56:30;86.00;;;79.20;;
57846;SDS011;43675;50.030;21.952;2023-10-08T01:58:56;90.40;;;83.20;;
57846;SDS011;43675;50.030;21.952;2023-10-08T02:01:23;87.80;;;80.70;;
57846;SDS011;43675;50.030;21.952;2023-10-08T02:03:50;98.40;;;90.30;;
57846;SDS011;43675;50.030;21.952;2023-10-08T02:06:16;101.00;;;92.50;;
57846;SDS011;43675;50.030;21.952;2023-10-08T02:08:43;98.50;;;90.70;;
57846;SDS011;43675;50.030;21.952;2023-10-08T02:11:09;98.70;;;90.90;;
57846;SDS011;43675;50.030;21.952;2023-10-08T02:13:36;93.00;;;85.90;;
57846;SDS011;43675;50.030;21.952;2023-10-08T02:16:02;91.10;;;84.20;;
57846;SDS011;43675;50.030;21.952;2023-10-08T02:18:29;82.60;;;76.10;;
57846;SDS011;43675;50.030;21.952;2023-10-08T02:20:56;79.10;;;72.90;;
57846;SDS011;43675;50.030;21.952;2023-10-08T02:23:23;76.90;;;70.90;;
57846;SDS011;43675;50.030;21.952;2023-10-08T02:25:49;73.20;;;67.40;;
57846;SDS011;43675;50.030;21.952;2023-10-08T02:28:16;77.90;;;71.70;;
57846;SDS011;43675;50.030;21.952;2023-10-08T02:30:42;76.70;;;70.60;;
57846;SDS011;43675;50.030;21.952;2023-10-08T02:33:09;76.80;;;70.60;;
57846;SDS011;43675;50.030;21.952;2023-10-08T02:35:36;70.90;;;65.20;;
57846;SDS011;43675;50.030;21.952;2023-10-08T02:38:02;77.50;;;71.30;;
57846;SDS011;43675;50.030;21.952;2023-10-08T02:40:29;74.00;;;68.10;;
57846;SDS011;43675;50.030;21.952;2023-10-08T02:42:56;75.40;;;69.30;;
57846;SDS011;43675;50.030;21.952;2023-10-08T02:45:29;69.60;;;63.80;;
57846;SDS011;43675;50.030;21.952;2023-10-08T02:47:56;66.30;;;60.60;;
57846;SDS011;43675;50.030;21.952;2023-10-08T02:50:23;69.40;;;63.70;;
57846;SDS011;43675;50.030;21.952;2023-10-08T02:52:49;62.80;;;57.40;;
57846;SDS011;43675;50.030;21.952;2023-10-08T02:55:18;97.20;;;89.40;;
57846;SDS011;43675;50.030;21.952;2023-10-08T02:57:45;64.70;;;59.30;;
57846;SDS011;43675;50.030;21.952;2023-10-08T03:00:12;66.80;;;61.00;;
57846;SDS011;43675;50.030;21.952;2023-10-08T03:02:39;73.10;;;67.00;;
57846;SDS011;43675;50.030;21.952;2023-10-08T03:05:06;61.70;;;56.20;;
57846;SDS011;43675;50.030;21.952;2023-10-08T03:07:33;64.10;;;58.60;;
57846;SDS011;43675;50.030;21.952;2023-10-08T03:09:59;96.30;;;87.90;;
57846;SDS011;43675;50.030;21.952;2023-10-08T03:12:26;94.10;;;86.00;;
57846;SDS011;43675;50.030;21.952;2023-10-08T03:14:53;91.60;;;84.30;;
57846;SDS011;43675;50.030;21.952;2023-10-08T03:17:19;77.00;;;70.70;;
57846;SDS011;43675;50.030;21.952;2023-10-08T03:19:46;80.40;;;73.90;;
57846;SDS011;43675;50.030;21.952;2023-10-08T03:22:13;73.60;;;67.70;;
57846;SDS011;43675;50.030;21.952;2023-10-08T03:24:40;73.70;;;67.60;;
57846;SDS011;43675;50.030;21.952;2023-10-08T03:27:06;86.50;;;79.70;;
57846;SDS011;43675;50.030;21.952;2023-10-08T03:29:33;102.10;;;94.10;;
57846;SDS011;43675;50.030;21.952;2023-10-08T03:32:00;104.90;;;96.30;;
57846;SDS011;43675;50.030;21.952;2023-10-08T03:34:27;98.20;;;90.10;;
57846;SDS011;43675;50.030;21.952;2023-10-08T03:36:54;97.20;;;89.30;;
57846;SDS011;43675;50.030;21.952;2023-10-08T03:39:20;93.70;;;86.40;;
57846;SDS011;43675;50.030;21.952;2023-10-08T03:41:47;96.90;;;89.20;;
57846;SDS011;43675;50.030;21.952;2023-10-08T03:44:13;95.80;;;88.30;;
57846;SDS011;43675;50.030;21.952;2023-10-08T03:46:40;98.10;;;90.30;;
57846;SDS011;43675;50.030;21.952;2023-10-08T03:49:07;88.90;;;82.00;;
57846;SDS011;43675;50.030;21.952;2023-10-08T03:51:33;95.20;;;87.70;;
57846;SDS011;43675;50.030;21.952;2023-10-08T03:54:00;97.00;;;89.40;;
57846;SDS011;43675;50.030;21.952;2023-10-08T03:56:27;88.60;;;81.80;;
57846;SDS011;43675;50.030;21.952;2023-10-08T03:58:54;97.30;;;89.80;;
57846;SDS011;43675;50.030;21.952;2023-10-08T04:01:21;94.80;;;87.50;;
57846;SDS011;43675;50.030;21.952;2023-10-08T04:03:48;89.60;;;82.40;;
57846;SDS011;43675;50.030;21.952;2023-10-08T04:06:15;88.70;;;81.30;;
57846;SDS011;43675;50.030;21.952;2023-10-08T04:08:41;87.60;;;80.10;;
57846;SDS011;43675;50.030;21.952;2023-10-08T04:11:09;89.30;;;81.90;;
57846;SDS011;43675;50.030;21.952;2023-10-08T04:13:36;91.40;;;84.00;;
57846;SDS011;43675;50.030;21.952;2023-10-08T04:16:02;86.90;;;79.80;;
57846;SDS011;43675;50.030;21.952;2023-10-08T04:18:29;90.10;;;83.00;;
57846;SDS011;43675;50.030;21.952;2023-10-08T04:20:56;83.50;;;76.50;;
57846;SDS011;43675;50.030;21.952;2023-10-08T04:23:23;90.10;;;82.70;;
57846;SDS011;43675;50.030;21.952;2023-10-08T04:25:49;89.40;;;81.50;;
57846;SDS011;43675;50.030;21.952;2023-10-08T04:28:16;84.90;;;77.50;;
57846;SDS011;43675;50.030;21.952;2023-10-08T04:30:42;77.40;;;70.50;;
57846;SDS011;43675;50.030;21.952;2023-10-08T04:33:09;91.50;;;84.10;;
57846;SDS011;43675;50.030;21.952;2023-10-08T04:35:36;85.50;;;78.70;;
57846;SDS011;43675;50.030;21.952;2023-10-08T04:38:04;94.00;;;86.30;;
57846;SDS011;43675;50.030;21.952;2023-10-08T04:40:31;90.30;;;83.10;;
57846;SDS011;43675;50.030;21.952;2023-10-08T04:42:58;93.40;;;85.50;;
57846;SDS011;43675;50.030;21.952;2023-10-08T04:45:24;89.00;;;81.70;;
57846;SDS011;43675;50.030;21.952;2023-10-08T04:47:51;103.40;;;95.50;;
57846;SDS011;43675;50.030;21.952;2023-10-08T04:50:17;100.30;;;92.50;;
57846;SDS011;43675;50.030;21.952;2023-10-08T04:52:44;95.40;;;88.20;;
57846;SDS011;43675;50.030;21.952;2023-10-08T04:55:11;89.10;;;82.10;;
57846;SDS011;43675;50.030;21.952;2023-10-08T04:57:37;82.30;;;75.80;;
57846;SDS011;43675;50.030;21.952;2023-10-08T05:00:04;76.80;;;70.70;;
57846;SDS011;43675;50.030;21.952;2023-10-08T05:02:31;64.90;;;59.30;;
57846;SDS011;43675;50.030;21.952;2023-10-08T05:04:58;58.50;;;52.90;;
57846;SDS011;43675;50.030;21.952;2023-10-08T05:07:25;55.50;;;50.10;;
57846;SDS011;43675;50.030;21.952;2023-10-08T05:09:52;62.50;;;56.70;;
57846;SDS011;43675;50.030;21.952;2023-10-08T05:12:19;61.60;;;55.90;;
57846;SDS011;43675;50.030;21.952;2023-10-08T05:14:45;62.80;;;57.00;;
57846;SDS011;43675;50.030;21.952;2023-10-08T05:17:12;62.90;;;56.80;;
57846;SDS011;43675;50.030;21.952;2023-10-08T05:19:39;61.60;;;55.60;;
57846;SDS011;43675;50.030;21.952;2023-10-08T05:22:10;61.50;;;55.50;;
57846;SDS011;43675;50.030;21.952;2023-10-08T05:24:37;62.40;;;55.90;;
57846;SDS011;43675;50.030;21.952;2023-10-08T05:27:04;66.00;;;59.40;;
57846;SDS011;43675;50.030;21.952;2023-10-08T05:29:31;64.20;;;57.70;;
57846;SDS011;43675;50.030;21.952;2023-10-08T05:31:57;61.20;;;54.50;;
57846;SDS011;43675;50.030;21.952;2023-10-08T05:34:24;66.00;;;59.20;;
57846;SDS011;43675;50.030;21.952;2023-10-08T05:36:50;71.00;;;63.60;;
57846;SDS011;43675;50.030;21.952;2023-10-08T05:39:17;68.10;;;60.00;;
57846;SDS011;43675;50.030;21.952;2023-10-08T05:41:44;65.30;;;58.30;;
57846;SDS011;43675;50.030;21.952;2023-10-08T05:44:10;67.00;;;59.60;;
57846;SDS011;43675;50.030;21.952;2023-10-08T05:46:37;69.00;;;61.90;;
57846;SDS011;43675;50.030;21.952;2023-10-08T05:49:03;64.40;;;56.10;;
57846;SDS011;43675;50.030;21.952;2023-10-08T05:51:30;71.80;;;64.70;;
57846;SDS011;43675;50.030;21.952;2023-10-08T05:53:58;66.90;;;59.90;;
57846;SDS011;43675;50.030;21.952;2023-10-08T05:56:24;67.50;;;60.50;;
57846;SDS011;43675;50.030;21.952;2023-10-08T05:58:51;66.10;;;59.40;;
57846;SDS011;43675;50.030;21.952;2023-10-08T06:01:17;65.00;;;58.10;;
57846;SDS011;43675;50.030;21.952;2023-10-08T06:03:44;62.00;;;55.90;;
57846;SDS011;43675;50.030;21.952;2023-10-08T06:06:11;62.30;;;56.20;;
57846;SDS011;43675;50.030;21.952;2023-10-08T06:08:37;57.80;;;51.70;;
57846;SDS011;43675;50.030;21.952;2023-10-08T06:11:05;58.80;;;52.60;;
57846;SDS011;43675;50.030;21.952;2023-10-08T06:13:31;60.60;;;54.50;;
57846;SDS011;43675;50.030;21.952;2023-10-08T06:15:58;60.50;;;54.10;;
57846;SDS011;43675;50.030;21.952;2023-10-08T06:18:25;56.60;;;50.90;;
57846;SDS011;43675;50.030;21.952;2023-10-08T06:20:57;56.90;;;50.90;;
57846;SDS011;43675;50.030;21.952;2023-10-08T06:23:25;55.00;;;49.20;;
57846;SDS011;43675;50.030;21.952;2023-10-08T06:25:53;59.30;;;53.30;;
57846;SDS011;43675;50.030;21.952;2023-10-08T06:28:20;59.50;;;53.40;;
57846;SDS011;43675;50.030;21.952;2023-10-08T06:30:47;57.80;;;52.00;;
57846;SDS011;43675;50.030;21.952;2023-10-08T06:33:15;59.60;;;53.60;;
57846;SDS011;43675;50.030;21.952;2023-10-08T06:35:42;59.20;;;53.40;;
57846;SDS011;43675;50.030;21.952;2023-10-08T06:38:08;63.40;;;57.50;;
57846;SDS011;43675;50.030;21.952;2023-10-08T06:40:35;66.80;;;60.60;;
57846;SDS011;43675;50.030;21.952;2023-10-08T06:43:03;66.20;;;59.90;;
57846;SDS011;43675;50.030;21.952;2023-10-08T06:45:30;68.20;;;62.00;;
57846;SDS011;43675;50.030;21.952;2023-10-08T06:47:57;64.50;;;58.70;;
57846;SDS011;43675;50.030;21.952;2023-10-08T06:50:23;64.90;;;59.00;;
57846;SDS011;43675;50.030;21.952;2023-10-08T06:52:50;67.90;;;62.00;;
57846;SDS011;43675;50.030;21.952;2023-10-08T06:55:17;63.90;;;58.20;;
57846;SDS011;43675;50.030;21.952;2023-10-08T06:57:43;63.40;;;57.50;;
57846;SDS011;43675;50.030;21.952;2023-10-08T07:00:10;62.00;;;56.40;;
57846;SDS011;43675;50.030;21.952;2023-10-08T07:02:37;64.20;;;58.30;;
57846;SDS011;43675;50.030;21.952;2023-10-08T07:05:04;65.60;;;59.60;;
57846;SDS011;43675;50.030;21.952;2023-10-08T07:07:31;67.00;;;60.70;;
57846;SDS011;43675;50.030;21.952;2023-10-08T07:09:57;80.60;;;73.50;;
57846;SDS011;43675;50.030;21.952;2023-10-08T07:12:24;74.30;;;67.50;;
57846;SDS011;43675;50.030;21.952;2023-10-08T07:14:50;71.80;;;65.30;;
57846;SDS011;43675;50.030;21.952;2023-10-08T07:17:17;72.10;;;65.80;;
57846;SDS011;43675;50.030;21.952;2023-10-08T07:19:44;69.90;;;63.60;;
57846;SDS011;43675;50.030;21.952;2023-10-08T07:22:10;68.30;;;62.30;;
57846;SDS011;43675;50.030;21.952;2023-10-08T07:24:37;65.60;;;59.80;;
57846;SDS011;43675;50.030;21.952;2023-10-08T07:27:04;65.60;;;59.80;;
57846;SDS011;43675;50.030;21.952;2023-10-08T07:29:30;62.20;;;55.90;;
57846;SDS011;43675;50.030;21.952;2023-10-08T07:31:57;59.60;;;54.00;;
57846;SDS011;43675;50.030;21.952;2023-10-08T07:34:23;62.90;;;56.70;;
57846;SDS011;43675;50.030;21.952;2023-10-08T07:36:50;59.00;;;53.40;;
57846;SDS011;43675;50.030;21.952;2023-10-08T07:39:19;55.60;;;50.30;;
57846;SDS011;43675;50.030;21.952;2023-10-08T07:41:48;47.60;;;42.60;;
57846;SDS011;43675;50.030;21.952;2023-10-08T07:44:15;36.30;;;32.80;;
57846;SDS011;43675;50.030;21.952;2023-10-08T07:46:42;27.70;;;25.10;;
57846;SDS011;43675;50.030;21.952;2023-10-08T07:49:09;22.70;;;20.50;;
57846;SDS011;43675;50.030;21.952;2023-10-08T07:51:35;21.20;;;19.20;;
57846;SDS011;43675;50.030;21.952;2023-10-08T07:54:02;22.50;;;20.20;;
57846;SDS011;43675;50.030;21.952;2023-10-08T07:56:29;21.20;;;19.40;;
57846;SDS011;43675;50.030;21.952;2023-10-08T07:58:55;21.30;;;19.20;;
57846;SDS011;43675;50.030;21.952;2023-10-08T08:01:22;21.10;;;19.20;;
57846;SDS011;43675;50.030;21.952;2023-10-08T08:03:50;21.20;;;19.10;;
57846;SDS011;43675;50.030;21.952;2023-10-08T08:06:17;20.60;;;18.70;;
57846;SDS011;43675;50.030;21.952;2023-10-08T08:08:43;19.20;;;17.50;;
57846;SDS011;43675;50.030;21.952;2023-10-08T08:11:10;21.50;;;19.50;;
57846;SDS011;43675;50.030;21.952;2023-10-08T08:13:38;20.50;;;18.80;;
57846;SDS011;43675;50.030;21.952;2023-10-08T08:16:08;18.90;;;17.20;;
57846;SDS011;43675;50.030;21.952;2023-10-08T08:18:36;21.90;;;20.00;;
57846;SDS011;43675;50.030;21.952;2023-10-08T08:21:03;22.10;;;20.00;;
57846;SDS011;43675;50.030;21.952;2023-10-08T08:23:34;19.00;;;17.40;;
57846;SDS011;43675;50.030;21.952;2023-10-08T08:26:01;20.90;;;19.30;;
57846;SDS011;43675;50.030;21.952;2023-10-08T08:28:27;21.80;;;19.90;;
57846;SDS011;43675;50.030;21.952;2023-10-08T08:30:54;19.90;;;18.10;;
57846;SDS011;43675;50.030;21.952;2023-10-08T08:33:21;18.40;;;17.00;;
57846;SDS011;43675;50.030;21.952;2023-10-08T08:35:57;17.20;;;15.80;;
57846;SDS011;43675;50.030;21.952;2023-10-08T08:38:25;17.20;;;15.60;;
57846;SDS011;43675;50.030;21.952;2023-10-08T08:40:51;17.20;;;15.60;;
57846;SDS011;43675;50.030;21.952;2023-10-08T08:43:27;16.30;;;14.90;;
57846;SDS011;43675;50.030;21.952;2023-10-08T08:45:54;16.00;;;14.70;;
57846;SDS011;43675;50.030;21.952;2023-10-08T08:48:20;15.40;;;14.20;;
57846;SDS011;43675;50.030;21.952;2023-10-08T08:50:48;15.30;;;14.10;;
57846;SDS011;43675;50.030;21.952;2023-10-08T08:53:15;16.40;;;15.10;;
57846;SDS011;43675;50.030;21.952;2023-10-08T08:55:41;15.80;;;14.40;;
57846;SDS011;43675;50.030;21.952;2023-10-08T08:58:08;16.10;;;14.90;;
57846;SDS011;43675;50.030;21.952;2023-10-08T09:00:35;16.00;;;14.80;;
57846;SDS011;43675;50.030;21.952;2023-10-08T09:03:02;16.30;;;15.10;;
57846;SDS011;43675;50.030;21.952;2023-10-08T09:05:29;18.10;;;16.80;;
57846;SDS011;43675;50.030;21.952;2023-10-08T09:07:56;16.50;;;15.10;;
57846;SDS011;43675;50.030;21.952;2023-10-08T09:10:31;18.60;;;17.30;;
57846;SDS011;43675;50.030;21.952;2023-10-08T09:12:59;18.60;;;17.30;;
57846;SDS011;43675;50.030;21.952;2023-10-08T09:15:26;18.50;;;17.00;;
57846;SDS011;43675;50.030;21.952;2023-10-08T09:17:53;18.10;;;16.70;;
57846;SDS011;43675;50.030;21.952;2023-10-08T09:20:20;17.60;;;16.20;;
57846;SDS011;43675;50.030;21.952;2023-10-08T09:23:30;17.60;;;16.40;;
57846;SDS011;43675;50.030;21.952;2023-10-08T09:25:42;17.80;;;16.50;;
57846;SDS011;43675;50.030;21.952;2023-10-08T09:28:11;17.00;;;15.70;;
57846;SDS011;43675;50.030;21.952;2023-10-08T09:30:38;16.00;;;14.80;;
57846;SDS011;43675;50.030;21.952;2023-10-08T09:33:09;16.10;;;14.90;;
57846;SDS011;43675;50.030;21.952;2023-10-08T09:35:37;16.80;;;15.30;;
57846;SDS011;43675;50.030;21.952;2023-10-08T09:38:06;16.00;;;14.70;;
57846;SDS011;43675;50.030;21.952;2023-10-08T09:40:33;16.90;;;15.50;;
57846;SDS011;43675;50.030;21.952;2023-10-08T09:43:00;17.00;;;15.80;;
57846;SDS011;43675;50.030;21.952;2023-10-08T09:45:27;17.60;;;16.30;;
57846;SDS011;43675;50.030;21.952;2023-10-08T09:47:54;17.60;;;16.30;;
57846;SDS011;43675;50.030;21.952;2023-10-08T09:50:28;17.10;;;15.80;;
57846;SDS011;43675;50.030;21.952;2023-10-08T09:52:59;16.50;;;15.30;;
57846;SDS011;43675;50.030;21.952;2023-10-08T09:55:39;16.50;;;15.30;;
57846;SDS011;43675;50.030;21.952;2023-10-08T09:58:11;16.70;;;15.60;;
57846;SDS011;43675;50.030;21.952;2023-10-08T10:00:38;16.50;;;15.20;;
57846;SDS011;43675;50.030;21.952;2023-10-08T10:03:06;17.20;;;15.90;;
57846;SDS011;43675;50.030;21.952;2023-10-08T10:05:33;17.40;;;16.30;;
57846;SDS011;43675;50.030;21.952;2023-10-08T10:07:59;16.80;;;15.70;;
57846;SDS011;43675;50.030;21.952;2023-10-08T10:10:30;17.60;;;16.20;;
57846;SDS011;43675;50.030;21.952;2023-10-08T10:13:02;17.20;;;16.00;;
57846;SDS011;43675;50.030;21.952;2023-10-08T10:15:32;16.80;;;15.60;;
57846;SDS011;43675;50.030;21.952;2023-10-08T10:18:08;17.30;;;16.10;;
57846;SDS011;43675;50.030;21.952;2023-10-08T10:23:37;16.30;;;15.10;;
57846;SDS011;43675;50.030;21.952;2023-10-08T10:31:34;17.10;;;16.00;;
57846;SDS011;43675;50.030;21.952;2023-10-08T10:34:07;16.30;;;15.00;;
57846;SDS011;43675;50.030;21.952;2023-10-08T10:36:35;16.60;;;15.40;;
57846;SDS011;43675;50.030;21.952;2023-10-08T10:39:04;15.60;;;14.40;;
57846;SDS011;43675;50.030;21.952;2023-10-08T10:41:30;17.40;;;16.20;;
57846;SDS011;43675;50.030;21.952;2023-10-08T10:43:57;18.00;;;16.70;;
57846;SDS011;43675;50.030;21.952;2023-10-08T10:46:24;18.50;;;17.10;;
57846;SDS011;43675;50.030;21.952;2023-10-08T10:48:50;17.20;;;15.80;;
57846;SDS011;43675;50.030;21.952;2023-10-08T10:51:17;16.20;;;15.10;;
57846;SDS011;43675;50.030;21.952;2023-10-08T10:53:43;16.60;;;15.40;;
57846;SDS011;43675;50.030;21.952;2023-10-08T10:56:13;17.20;;;16.10;;
57846;SDS011;43675;50.030;21.952;2023-10-08T10:58:41;16.20;;;15.00;;
57846;SDS011;43675;50.030;21.952;2023-10-08T11:01:08;15.50;;;14.30;;
57846;SDS011;43675;50.030;21.952;2023-10-08T11:03:34;17.60;;;16.10;;
57846;SDS011;43675;50.030;21.952;2023-10-08T11:06:01;17.00;;;15.90;;
57846;SDS011;43675;50.030;21.952;2023-10-08T11:08:28;17.50;;;16.30;;
57846;SDS011;43675;50.030;21.952;2023-10-08T11:10:55;16.70;;;15.60;;
57846;SDS011;43675;50.030;21.952;2023-10-08T11:13:23;15.80;;;14.60;;
57846;SDS011;43675;50.030;21.952;2023-10-08T11:15:51;15.40;;;14.10;;
57846;SDS011;43675;50.030;21.952;2023-10-08T11:18:20;16.90;;;15.70;;
57846;SDS011;43675;50.030;21.952;2023-10-08T11:20:50;14.60;;;13.50;;
57846;SDS011;43675;50.030;21.952;2023-10-08T11:23:36;16.70;;;15.60;;
57846;SDS011;43675;50.030;21.952;2023-10-08T11:26:07;14.20;;;13.40;;
57846;SDS011;43675;50.030;21.952;2023-10-08T11:28:35;15.80;;;14.80;;
57846;SDS011;43675;50.030;21.952;2023-10-08T11:31:03;15.20;;;14.20;;
57846;SDS011;43675;50.030;21.952;2023-10-08T11:33:30;14.90;;;13.90;;
57846;SDS011;43675;50.030;21.952;2023-10-08T11:36:06;15.30;;;14.20;;
57846;SDS011;43675;50.030;21.952;2023-10-08T11:38:37;15.20;;;14.00;;
57846;SDS011;43675;50.030;21.952;2023-10-08T11:41:13;15.80;;;14.90;;
57846;SDS011;43675;50.030;21.952;2023-10-08T11:43:43;15.60;;;14.50;;
57846;SDS011;43675;50.030;21.952;2023-10-08T11:46:10;16.20;;;15.10;;
57846;SDS011;43675;50.030;21.952;2023-10-08T11:48:37;15.30;;;14.30;;
57846;SDS011;43675;50.030;21.952;2023-10-08T11:51:03;15.00;;;14.00;;
57846;SDS011;43675;50.030;21.952;2023-10-08T11:53:30;15.10;;;14.20;;
57846;SDS011;43675;50.030;21.952;2023-10-08T11:55:56;15.20;;;14.20;;
57846;SDS011;43675;50.030;21.952;2023-10-08T11:58:23;15.00;;;13.90;;
57846;SDS011;43675;50.030;21.952;2023-10-08T12:00:50;18.30;;;17.00;;
57846;SDS011;43675;50.030;21.952;2023-10-08T12:03:16;18.00;;;16.90;;
57846;SDS011;43675;50.030;21.952;2023-10-08T12:05:43;17.80;;;16.30;;
57846;SDS011;43675;50.030;21.952;2023-10-08T12:08:10;16.70;;;15.50;;
57846;SDS011;43675;50.030;21.952;2023-10-08T12:10:37;17.50;;;16.20;;
57846;SDS011;43675;50.030;21.952;2023-10-08T12:13:04;17.60;;;16.20;;
57846;SDS011;43675;50.030;21.952;2023-10-08T12:15:31;15.80;;;14.70;;
57846;SDS011;43675;50.030;21.952;2023-10-08T12:17:57;17.70;;;16.60;;
57846;SDS011;43675;50.030;21.952;2023-10-08T12:20:24;18.10;;;16.90;;
57846;SDS011;43675;50.030;21.952;2023-10-08T12:22:51;16.40;;;15.10;;
57846;SDS011;43675;50.030;21.952;2023-10-08T12:25:17;16.10;;;14.80;;
57846;SDS011;43675;50.030;21.952;2023-10-08T12:27:44;16.50;;;15.30;;
57846;SDS011;43675;50.030;21.952;2023-10-08T12:30:11;16.40;;;15.30;;
57846;SDS011;43675;50.030;21.952;2023-10-08T12:32:37;16.60;;;15.30;;
57846;SDS011;43675;50.030;21.952;2023-10-08T12:35:04;15.10;;;13.50;;
57846;SDS011;43675;50.030;21.952;2023-10-08T12:37:31;14.90;;;13.50;;
57846;SDS011;43675;50.030;21.952;2023-10-08T12:39:58;15.40;;;14.30;;
57846;SDS011;43675;50.030;21.952;2023-10-08T12:42:24;15.20;;;14.10;;
57846;SDS011;43675;50.030;21.952;2023-10-08T12:44:52;15.80;;;14.50;;
57846;SDS011;43675;50.030;21.952;2023-10-08T12:47:19;16.10;;;15.00;;
57846;SDS011;43675;50.030;21.952;2023-10-08T12:49:45;15.10;;;14.10;;
57846;SDS011;43675;50.030;21.952;2023-10-08T12:52:12;15.30;;;14.30;;
57846;SDS011;43675;50.030;21.952;2023-10-08T12:54:38;15.30;;;14.20;;
57846;SDS011;43675;50.030;21.952;2023-10-08T12:57:05;15.70;;;14.40;;
57846;SDS011;43675;50.030;21.952;2023-10-08T12:59:31;15.60;;;14.50;;
57846;SDS011;43675;50.030;21.952;2023-10-08T13:01:58;15.60;;;14.50;;
57846;SDS011;43675;50.030;21.952;2023-10-08T13:04:24;16.30;;;15.10;;
57846;SDS011;43675;50.030;21.952;2023-10-08T13:06:51;16.30;;;15.10;;
57846;SDS011;43675;50.030;21.952;2023-10-08T13:09:19;16.50;;;15.20;;
57846;SDS011;43675;50.030;21.952;2023-10-08T13:11:45;16.40;;;15.20;;
57846;SDS011;43675;50.030;21.952;2023-10-08T13:14:12;16.60;;;15.30;;
57846;SDS011;43675;50.030;21.952;2023-10-08T13:16:39;15.60;;;14.50;;
57846;SDS011;43675;50.030;21.952;2023-10-08T13:19:05;16.20;;;15.00;;
57846;SDS011;43675;50.030;21.952;2023-10-08T13:21:32;15.60;;;14.50;;
57846;SDS011;43675;50.030;21.952;2023-10-08T13:23:58;15.40;;;14.30;;
57846;SDS011;43675;50.030;21.952;2023-10-08T13:26:27;15.20;;;14.00;;
57846;SDS011;43675;50.030;21.952;2023-10-08T13:28:54;15.70;;;14.60;;
57846;SDS011;43675;50.030;21.952;2023-10-08T13:31:20;15.20;;;14.10;;
57846;SDS011;43675;50.030;21.952;2023-10-08T13:33:47;14.80;;;13.80;;
57846;SDS011;43675;50.030;21.952;2023-10-08T13:36:14;14.20;;;13.30;;
57846;SDS011;43675;50.030;21.952;2023-10-08T13:38:41;14.80;;;13.70;;
57846;SDS011;43675;50.030;21.952;2023-10-08T13:41:08;15.40;;;14.20;;
57846;SDS011;43675;50.030;21.952;2023-10-08T13:43:35;14.60;;;13.60;;
57846;SDS011;43675;50.030;21.952;2023-10-08T13:46:02;15.30;;;14.10;;
57846;SDS011;43675;50.030;21.952;2023-10-08T13:48:31;15.30;;;14.30;;
57846;SDS011;43675;50.030;21.952;2023-10-08T13:50:58;15.30;;;14.30;;
57846;SDS011;43675;50.030;21.952;2023-10-08T13:53:26;15.50;;;14.40;;
57846;SDS011;43675;50.030;21.952;2023-10-08T13:55:52;15.10;;;14.10;;
57846;SDS011;43675;50.030;21.952;2023-10-08T13:58:19;16.00;;;14.90;;
57846;SDS011;43675;50.030;21.952;2023-10-08T14:00:46;15.20;;;14.10;;
57846;SDS011;43675;50.030;21.952;2023-10-08T14:03:12;16.00;;;14.90;;
57846;SDS011;43675;50.030;21.952;2023-10-08T14:05:39;16.10;;;15.20;;
57846;SDS011;43675;50.030;21.952;2023-10-08T14:08:06;16.60;;;15.50;;
57846;SDS011;43675;50.030;21.952;2023-10-08T14:10:32;16.50;;;15.40;;
57846;SDS011;43675;50.030;21.952;2023-10-08T14:12:59;16.10;;;15.00;;
57846;SDS011;43675;50.030;21.952;2023-10-08T14:15:25;15.80;;;14.70;;
57846;SDS011;43675;50.030;21.952;2023-10-08T14:17:52;16.10;;;14.90;;